Time;durP1;ratioP1;P1;durP2;ratioP2;P2;SDS_P1;SDS_P2;PMS_P1;PMS_P2;Temp;Humidity;BMP_temperature;BMP_pressure;BME280_temperature;BME280_humidity;BME280_pressure;Samples;Min_cycle;Max_cycle;Signal;HPM_P1;HPM_P2
2022/05/22 00:01:51;;;;;;;5.85;2.53;;;10.30;97.50;;;;;;5030818;28;20029;-68
2022/05/22 00:04:24;;;;;;;11.27;3.30;;;10.30;97.50;;;;;;5032116;28;20063;-68
2022/05/22 00:06:55;;;;;;;5.82;2.50;;;10.40;97.60;;;;;;5030421;28;20041;-67
2022/05/22 00:09:28;;;;;;;6.10;2.50;;;10.30;97.60;;;;;;5010784;28;20040;-68
2022/05/22 00:11:58;;;;;;;5.20;2.42;;;10.40;97.70;;;;;;5031534;28;20091;-67
2022/05/22 00:14:26;;;;;;;5.88;2.70;;;10.40;97.60;;;;;;5012860;28;21717;-68
2022/05/22 00:16:55;;;;;;;7.97;2.70;;;10.40;97.70;;;;;;5034511;28;20032;-68
2022/05/22 00:19:28;;;;;;;6.15;2.75;;;10.40;97.60;;;;;;5030801;28;20449;-70
2022/05/22 00:21:54;;;;;;;8.10;3.05;;;10.40;97.40;;;;;;5031100;28;20028;-69
2022/05/22 00:24:22;;;;;;;5.88;2.25;;;10.40;97.40;;;;;;5029603;28;20033;-69
2022/05/22 00:26:48;;;;;;;6.57;2.70;;;10.40;97.40;;;;;;5030136;28;20071;-68
2022/05/22 00:29:15;;;;;;;6.68;2.70;;;10.30;97.40;;;;;;5030775;28;20033;-68
2022/05/22 00:31:43;;;;;;;4.60;2.50;;;10.30;97.50;;;;;;5032398;28;20029;-69
2022/05/22 00:34:09;;;;;;;4.68;2.40;;;10.30;97.60;;;;;;5030725;28;20140;-69
2022/05/22 00:36:35;;;;;;;6.85;2.65;;;10.30;97.40;;;;;;5033523;28;20032;-68
2022/05/22 00:39:01;;;;;;;6.57;2.58;;;10.20;97.30;;;;;;5032013;28;20096;-68
2022/05/22 00:41:27;;;;;;;6.30;2.70;;;10.20;97.20;;;;;;5021654;28;20029;-69
2022/05/22 00:43:54;;;;;;;5.57;2.60;;;10.20;97.20;;;;;;5037436;28;20036;-69
2022/05/22 00:46:22;;;;;;;4.70;2.60;;;10.10;97.20;;;;;;5037206;28;20021;-68
2022/05/22 00:48:53;;;;;;;5.57;2.78;;;10.20;97.30;;;;;;5035167;28;20112;-68
2022/05/22 00:51:50;;;;;;;6.65;2.75;;;10.20;97.50;;;;;;5039661;28;20041;-69
2022/05/22 00:54:39;;;;;;;4.65;2.35;;;10.20;97.40;;;;;;5031323;28;20132;-69
2022/05/22 00:57:14;;;;;;;5.05;2.53;;;10.30;97.60;;;;;;5053906;28;20114;-68
2022/05/22 00:59:44;;;;;;;5.35;2.55;;;10.30;97.70;;;;;;5056899;28;20059;-68
2022/05/22 01:02:13;;;;;;;7.22;2.55;;;10.30;97.80;;;;;;5057460;28;20090;-68
2022/05/22 01:04:44;;;;;;;8.13;2.53;;;10.30;97.70;;;;;;5056158;28;20043;-68
2022/05/22 01:07:15;;;;;;;5.82;2.42;;;10.20;97.60;;;;;;5054855;28;20024;-67
2022/05/22 01:09:41;;;;;;;6.35;2.90;;;10.20;97.60;;;;;;5060423;28;20365;-67
2022/05/22 01:12:12;;;;;;;6.07;2.80;;;10.10;97.40;;;;;;5056498;28;20143;-68
2022/05/22 01:14:39;;;;;;;7.93;2.47;;;10.10;97.40;;;;;;5057376;28;20025;-68
2022/05/22 01:17:10;;;;;;;7.32;2.50;;;10.00;97.10;;;;;;5065791;28;20032;-68
2022/05/22 01:19:36;;;;;;;8.43;3.08;;;10.00;97.00;;;;;;5062041;28;20046;-68
2022/05/22 01:22:12;;;;;;;11.70;3.00;;;9.90;97.00;;;;;;5058754;28;20481;-68
2022/05/22 01:24:41;;;;;;;5.40;2.80;;;9.90;97.10;;;;;;5053435;28;20055;-68
2022/05/22 01:27:11;;;;;;;6.18;2.60;;;9.90;97.00;;;;;;5058099;28;20422;-67
2022/05/22 01:29:40;;;;;;;6.97;2.92;;;9.90;97.10;;;;;;5056513;28;20034;-68
2022/05/22 01:32:06;;;;;;;6.50;2.88;;;9.80;96.90;;;;;;5056223;28;20376;-68
2022/05/22 01:34:32;;;;;;;6.13;2.40;;;9.80;96.80;;;;;;5055622;28;20078;-68
2022/05/22 01:36:57;;;;;;;7.80;2.50;;;9.80;96.90;;;;;;5062796;28;20025;-68
2022/05/22 01:39:23;;;;;;;8.15;2.40;;;9.90;97.10;;;;;;5070682;28;20031;-68
2022/05/22 01:41:49;;;;;;;5.18;2.45;;;10.00;97.50;;;;;;5058907;28;20056;-68
2022/05/22 01:44:17;;;;;;;6.03;2.60;;;9.90;97.40;;;;;;5037615;28;20750;-68
2022/05/22 01:46:43;;;;;;;5.72;2.60;;;9.90;97.30;;;;;;5055326;28;20421;-68
2022/05/22 01:49:09;;;;;;;7.75;2.80;;;10.00;97.40;;;;;;5059028;28;20142;-68
2022/05/22 01:51:40;;;;;;;5.63;2.42;;;10.00;97.50;;;;;;5055851;28;20037;-68
2022/05/22 01:54:05;;;;;;;6.05;2.55;;;10.00;97.40;;;;;;5055333;28;20416;-68
2022/05/22 01:56:32;;;;;;;8.05;2.60;;;10.10;97.70;;;;;;5062422;28;20147;-68
2022/05/22 01:58:58;;;;;;;4.47;2.33;;;10.10;97.80;;;;;;5064196;28;20429;-68
2022/05/22 02:01:24;;;;;;;8.07;2.60;;;10.10;97.90;;;;;;5056252;28;20040;-68
2022/05/22 02:03:49;;;;;;;6.05;2.50;;;10.10;97.90;;;;;;5056008;28;20049;-68
2022/05/22 02:06:15;;;;;;;4.40;2.38;;;10.20;98.00;;;;;;5067475;28;20037;-68
2022/05/22 02:08:42;;;;;;;5.78;2.50;;;10.20;97.90;;;;;;5056394;28;20033;-68
2022/05/22 02:11:08;;;;;;;7.70;2.60;;;10.20;97.90;;;;;;5060722;28;20032;-67
2022/05/22 02:13:44;;;;;;;7.75;3.17;;;10.20;98.00;;;;;;5059128;28;20383;-68
2022/05/22 02:16:11;;;;;;;9.65;2.83;;;10.20;97.90;;;;;;5054023;28;20017;-67
2022/05/22 02:18:36;;;;;;;7.88;2.70;;;10.10;97.70;;;;;;5060228;28;20017;-68
2022/05/22 02:21:05;;;;;;;6.88;2.95;;;10.00;97.70;;;;;;5055862;28;20103;-69
2022/05/22 02:23:35;;;;;;;8.75;3.00;;;10.00;97.70;;;;;;5040792;28;20425;-67
2022/05/22 02:26:01;;;;;;;6.18;2.70;;;10.00;97.90;;;;;;5055884;28;20079;-68
2022/05/22 02:28:31;;;;;;;5.68;2.70;;;10.00;97.80;;;;;;5060623;28;20017;-68
2022/05/22 02:30:59;;;;;;;6.28;2.38;;;10.10;97.90;;;;;;5054526;28;20052;-68
2022/05/22 02:33:26;;;;;;;5.63;2.53;;;10.10;97.90;;;;;;5036765;28;20138;-68
2022/05/22 02:35:52;;;;;;;5.55;2.85;;;10.20;97.90;;;;;;5046845;28;20025;-68
2022/05/22 02:38:19;;;;;;;5.18;2.85;;;10.20;98.00;;;;;;5053741;28;20493;-68
2022/05/22 02:40:45;;;;;;;6.43;2.50;;;10.30;98.00;;;;;;5054730;28;20021;-67
2022/05/22 02:43:10;;;;;;;6.50;2.60;;;10.40;98.00;;;;;;5056312;28;20067;-67
2022/05/22 02:45:39;;;;;;;8.85;3.13;;;10.50;98.00;;;;;;5057294;28;20104;-68
2022/05/22 02:48:16;;;;;;;6.57;2.90;;;10.50;98.00;;;;;;5062242;28;20024;-68
2022/05/22 02:50:45;;;;;;;6.78;2.95;;;10.50;98.00;;;;;;5056922;28;20029;-68
2022/05/22 02:53:11;;;;;;;8.18;3.13;;;10.60;98.00;;;;;;5061191;28;20103;-68
2022/05/22 02:55:36;;;;;;;8.73;3.00;;;10.70;98.00;;;;;;5062288;28;20433;-68
2022/05/22 02:58:03;;;;;;;8.15;3.00;;;10.80;98.00;;;;;;5053548;28;20093;-68
2022/05/22 03:00:30;;;;;;;7.03;3.03;;;10.80;97.90;;;;;;5061374;28;20181;-68
2022/05/22 03:02:57;;;;;;;6.25;2.80;;;10.90;97.90;;;;;;5066069;28;20317;-67
2022/05/22 03:05:26;;;;;;;7.93;3.53;;;10.90;98.00;;;;;;5036564;28;20042;-67
2022/05/22 03:07:52;;;;;;;6.32;3.55;;;10.90;98.00;;;;;;5033559;28;20032;-67
2022/05/22 03:10:17;;;;;;;8.45;2.90;;;10.90;97.90;;;;;;5036080;28;21866;-69
2022/05/22 03:12:44;;;;;;;6.70;3.17;;;10.90;97.80;;;;;;5035907;28;20363;-69
2022/05/22 03:15:14;;;;;;;7.03;3.17;;;10.90;97.90;;;;;;5036482;28;20037;-69
2022/05/22 03:17:40;;;;;;;5.13;2.95;;;10.90;98.00;;;;;;5039810;28;20088;-69
2022/05/22 03:20:06;;;;;;;4.95;2.70;;;10.70;97.80;;;;;;5034419;28;20066;-68
2022/05/22 03:22:35;;;;;;;9.60;3.15;;;10.40;97.60;;;;;;5034971;28;20029;-68
2022/05/22 03:25:01;;;;;;;7.85;2.90;;;10.40;97.80;;;;;;5032540;28;20131;-69
2022/05/22 03:27:26;;;;;;;9.13;3.13;;;10.40;97.90;;;;;;5035047;28;20026;-68
2022/05/22 03:29:52;;;;;;;6.32;3.10;;;10.40;98.00;;;;;;5032102;28;20104;-68
2022/05/22 03:32:18;;;;;;;6.85;3.17;;;10.40;97.90;;;;;;5036867;28;20115;-68
2022/05/22 03:34:44;;;;;;;7.53;3.22;;;10.30;97.90;;;;;;5034935;28;20029;-68
2022/05/22 03:37:10;;;;;;;7.03;2.88;;;10.40;98.00;;;;;;5034072;28;20041;-68
2022/05/22 03:39:36;;;;;;;6.75;2.90;;;10.40;98.00;;;;;;5034763;28;20021;-68
2022/05/22 03:42:02;;;;;;;6.90;3.20;;;10.30;97.90;;;;;;5031489;28;20040;-68
2022/05/22 03:44:28;;;;;;;7.45;3.47;;;10.20;97.90;;;;;;5035384;28;20021;-69
2022/05/22 03:46:54;;;;;;;5.82;2.90;;;10.10;97.80;;;;;;5020285;28;20158;-68
2022/05/22 03:49:19;;;;;;;5.95;2.60;;;10.10;97.80;;;;;;5030893;28;20086;-68
2022/05/22 03:51:45;;;;;;;7.80;2.90;;;10.00;97.90;;;;;;5036806;28;20417;-68
2022/05/22 03:54:11;;;;;;;6.50;3.00;;;9.80;97.70;;;;;;5041699;28;20079;-68
2022/05/22 03:56:39;;;;;;;7.63;3.00;;;9.60;97.40;;;;;;5033559;28;20411;-68
2022/05/22 03:59:04;;;;;;;7.55;3.45;;;9.40;97.10;;;;;;5043662;28;20033;-68
2022/05/22 04:01:30;;;;;;;6.55;3.50;;;9.30;96.70;;;;;;5033107;28;20034;-68
2022/05/22 04:03:56;;;;;;;6.40;2.75;;;9.30;96.70;;;;;;5044585;28;20048;-68
2022/05/22 04:06:22;;;;;;;7.20;3.47;;;9.20;96.40;;;;;;5053438;28;20036;-68
2022/05/22 04:08:49;;;;;;;5.43;3.33;;;9.20;96.30;;;;;;5054663;28;20106;-68
2022/05/22 04:11:24;;;;;;;7.75;3.50;;;9.20;96.00;;;;;;5054841;28;20041;-68
2022/05/22 04:13:50;;;;;;;7.07;3.00;;;9.20;95.80;;;;;;5033078;28;20410;-68
2022/05/22 04:16:16;;;;;;;10.18;3.70;;;9.50;96.70;;;;;;5055175;28;20040;-68
2022/05/22 04:18:42;;;;;;;7.18;3.50;;;9.70;97.30;;;;;;5055231;28;20125;-68
2022/05/22 04:21:08;;;;;;;6.22;2.95;;;9.90;97.80;;;;;;5055185;28;20060;-68
2022/05/22 04:26:18;;;;;;;;;;;10.10;98.00;;;;;;5056076;28;20028;-68
2022/05/22 04:28:44;;;;;;;6.13;3.15;;;10.60;98.00;;;;;;5052713;28;19908;-68
2022/05/22 04:31:10;;;;;;;5.40;2.80;;;11.00;98.00;;;;;;5053766;28;20033;-68
2022/05/22 04:33:35;;;;;;;9.95;2.75;;;11.50;97.30;;;;;;5058422;28;20422;-68
2022/05/22 04:36:01;;;;;;;9.93;3.10;;;11.70;96.70;;;;;;5059357;28;20092;-68
2022/05/22 04:38:27;;;;;;;8.55;3.22;;;11.90;95.80;;;;;;5055115;28;20025;-68
2022/05/22 04:41:03;;;;;;;6.95;2.55;;;12.00;95.50;;;;;;5059549;28;20136;-67
2022/05/22 04:43:30;;;;;;;4.53;2.40;;;12.00;95.50;;;;;;5052187;28;20565;-68
2022/05/22 04:45:59;;;;;;;7.82;2.63;;;12.00;95.60;;;;;;5055399;28;20029;-68
2022/05/22 04:48:26;;;;;;;4.47;2.17;;;12.00;95.30;;;;;;5056230;28;20033;-68
2022/05/22 04:50:53;;;;;;;6.57;2.33;;;12.20;94.90;;;;;;5062882;28;20029;-68
2022/05/22 04:53:22;;;;;;;6.85;2.60;;;12.20;95.20;;;;;;5063234;28;20020;-68
2022/05/22 04:55:48;;;;;;;6.03;2.40;;;12.00;95.30;;;;;;5052966;28;20009;-68
2022/05/22 04:58:16;;;;;;;6.60;2.35;;;12.10;95.20;;;;;;5057578;28;20329;-68
2022/05/22 05:00:42;;;;;;;4.50;2.20;;;12.30;94.70;;;;;;5059974;28;20124;-68
2022/05/22 05:03:10;;;;;;;6.22;2.58;;;12.40;94.50;;;;;;5051508;28;21361;-68
2022/05/22 05:05:36;;;;;;;4.88;2.35;;;12.40;94.70;;;;;;5057859;28;20032;-68
2022/05/22 05:08:02;;;;;;;7.72;2.15;;;12.40;94.70;;;;;;5052336;28;20107;-68
2022/05/22 05:10:27;;;;;;;7.88;2.47;;;12.40;94.70;;;;;;5054702;28;20068;-68
2022/05/22 05:12:53;;;;;;;5.03;2.00;;;12.40;94.60;;;;;;5052512;28;20041;-68
2022/05/22 05:15:21;;;;;;;6.10;2.42;;;12.60;93.60;;;;;;5052644;28;20017;-68
2022/05/22 05:17:48;;;;;;;6.47;2.10;;;12.80;93.50;;;;;;5055887;28;20035;-68
2022/05/22 05:20:18;;;;;;;6.95;2.65;;;12.90;92.90;;;;;;5063191;28;20033;-68
2022/05/22 05:22:44;;;;;;;6.32;2.20;;;13.00;92.80;;;;;;5062583;28;20029;-68
2022/05/22 05:25:12;;;;;;;6.55;2.33;;;13.10;92.40;;;;;;5064116;28;20025;-68
2022/05/22 05:27:38;;;;;;;6.20;2.15;;;13.30;92.00;;;;;;5053958;28;20029;-68
2022/05/22 05:30:04;;;;;;;5.63;2.35;;;13.50;90.90;;;;;;5056606;28;20135;-68
2022/05/22 05:32:30;;;;;;;4.68;2.30;;;13.70;89.80;;;;;;5056790;28;20048;-68
2022/05/22 05:35:07;;;;;;;6.68;2.00;;;13.80;89.80;;;;;;5058560;28;20033;-68
2022/05/22 05:37:34;;;;;;;5.45;2.13;;;13.90;89.80;;;;;;5054505;28;20035;-68
2022/05/22 05:40:00;;;;;;;5.35;1.95;;;14.10;89.10;;;;;;5058497;28;20017;-68
2022/05/22 05:42:31;;;;;;;6.47;2.13;;;14.20;88.30;;;;;;5054969;28;20476;-68
2022/05/22 05:45:00;;;;;;;7.00;1.98;;;14.30;88.80;;;;;;5046171;28;20036;-68
2022/05/22 05:47:35;;;;;;;7.57;2.05;;;14.40;88.20;;;;;;5055854;28;20044;-68
2022/05/22 05:50:05;;;;;;;5.57;2.00;;;14.50;87.80;;;;;;5053844;28;20021;-68
2022/05/22 05:52:32;;;;;;;5.78;1.90;;;14.60;87.80;;;;;;5050880;28;20025;-68
2022/05/22 05:54:58;;;;;;;6.13;1.83;;;14.80;87.30;;;;;;5058296;28;20360;-68
2022/05/22 05:57:26;;;;;;;6.75;2.17;;;14.90;86.20;;;;;;5054676;28;20021;-67
2022/05/22 05:59:54;;;;;;;4.88;1.67;;;15.00;85.80;;;;;;5061063;28;20028;-67
2022/05/22 06:02:20;;;;;;;4.70;1.92;;;15.10;85.30;;;;;;5052740;28;20049;-68
2022/05/22 06:04:46;;;;;;;4.05;1.55;;;15.30;85.70;;;;;;5049197;28;20051;-67
2022/05/22 06:07:12;;;;;;;4.80;1.65;;;15.40;86.30;;;;;;5053973;28;20025;-69
2022/05/22 06:09:38;;;;;;;5.20;1.88;;;15.60;85.40;;;;;;5054651;28;20035;-69
2022/05/22 06:12:07;;;;;;;4.57;1.52;;;15.60;85.30;;;;;;5054789;28;20037;-68
2022/05/22 06:14:33;;;;;;;5.05;1.60;;;15.80;84.50;;;;;;5053982;28;20025;-68
2022/05/22 06:16:59;;;;;;;6.57;1.73;;;16.00;84.50;;;;;;5054514;28;20091;-68
2022/05/22 06:22:17;;;;;;;4.53;1.80;;;16.20;84.20;;;;;;5053367;28;20341;-68
2022/05/22 06:24:46;;;;;;;4.93;1.80;;;16.30;83.00;;;;;;5053203;28;20053;-67
2022/05/22 06:27:11;;;;;;;5.07;1.50;;;16.50;82.30;;;;;;5055173;28;20043;-68
2022/05/22 06:29:41;;;;;;;5.25;1.80;;;16.60;81.40;;;;;;5052683;28;20107;-68
2022/05/22 06:32:13;;;;;;;6.63;1.70;;;16.80;81.30;;;;;;5020869;28;20117;-68
2022/05/22 06:34:42;;;;;;;4.18;1.67;;;16.90;81.20;;;;;;5055497;28;20025;-68
2022/05/22 06:37:14;;;;;;;4.25;1.83;;;17.00;81.30;;;;;;5056895;28;20032;-68
2022/05/22 06:39:52;;;;;;;6.43;1.67;;;17.10;81.30;;;;;;5035048;28;20531;-69
2022/05/22 06:42:30;;;;;;;5.65;1.75;;;17.20;80.40;;;;;;5049226;28;20020;-68
2022/05/22 06:45:06;;;;;;;4.00;1.63;;;17.30;79.60;;;;;;5047744;28;20076;-68
2022/05/22 06:47:35;;;;;;;4.40;1.60;;;17.40;80.50;;;;;;5051689;28;20056;-68
2022/05/22 06:50:04;;;;;;;3.38;1.30;;;17.40;80.20;;;;;;5053678;28;20083;-68
2022/05/22 06:52:32;;;;;;;5.60;1.40;;;17.60;79.40;;;;;;5051735;28;20318;-68
2022/05/22 06:54:59;;;;;;;5.15;1.20;;;17.80;79.20;;;;;;5035863;28;20111;-68
2022/05/22 06:57:27;;;;;;;4.55;2.33;;;18.10;77.70;;;;;;5054864;28;20040;-67
2022/05/22 06:59:55;;;;;;;11.10;2.30;;;18.10;81.20;;;;;;5052681;28;20052;-67
2022/05/22 07:02:21;;;;;;;5.25;2.53;;;18.00;81.10;;;;;;5052956;28;20068;-68
2022/05/22 07:04:47;;;;;;;4.35;1.80;;;18.00;80.90;;;;;;5044587;28;20045;-67
2022/05/22 07:07:12;;;;;;;4.07;1.80;;;18.10;81.60;;;;;;5049898;28;20037;-68
2022/05/22 07:09:38;;;;;;;5.25;1.60;;;18.30;83.60;;;;;;5053665;28;20052;-67
2022/05/22 07:12:12;;;;;;;5.03;1.80;;;18.30;83.70;;;;;;5053971;28;20044;-68
2022/05/22 07:14:38;;;;;;;;;;;18.40;83.40;;;;;;5046493;28;20098;-69
2022/05/22 07:17:07;;;;;;;5.30;1.80;;;18.50;83.90;;;;;;5053441;28;20306;-69
2022/05/22 07:19:34;;;;;;;3.45;1.63;;;18.40;83.10;;;;;;5055827;28;20375;-68
2022/05/22 07:22:01;;;;;;;3.67;1.70;;;18.40;84.30;;;;;;5051640;28;20033;-67
2022/05/22 07:24:28;;;;;;;6.50;1.67;;;18.50;83.30;;;;;;5052393;28;20029;-68
2022/05/22 07:26:54;;;;;;;6.20;1.92;;;18.70;84.90;;;;;;5053009;28;20081;-68
2022/05/22 07:29:19;;;;;;;3.80;1.50;;;19.00;83.30;;;;;;5052159;28;20103;-68
2022/05/22 07:31:45;;;;;;;4.05;1.67;;;19.80;82.10;;;;;;5050704;28;20087;-68
2022/05/22 07:34:11;;;;;;;4.00;1.75;;;21.20;76.90;;;;;;5052684;28;20017;-67
2022/05/22 07:36:36;;;;;;;3.17;1.35;;;21.80;74.00;;;;;;5052728;28;20025;-67
2022/05/22 07:39:03;;;;;;;4.47;1.75;;;22.50;71.90;;;;;;5048866;28;20091;-67
2022/05/22 07:41:30;;;;;;;4.30;1.40;;;22.30;72.50;;;;;;5051412;28;20029;-67
2022/05/22 07:43:57;;;;;;;4.68;1.52;;;22.40;72.00;;;;;;5051449;28;20033;-68
2022/05/22 07:46:23;;;;;;;5.05;1.50;;;22.50;72.50;;;;;;5053283;28;20028;-68
2022/05/22 07:48:49;;;;;;;4.32;1.73;;;22.70;71.70;;;;;;5052975;28;20051;-68
2022/05/22 07:51:14;;;;;;;5.47;1.40;;;22.30;72.90;;;;;;5053255;28;20037;-67
2022/05/22 07:53:42;;;;;;;5.88;1.40;;;21.90;74.20;;;;;;5052792;28;20024;-73
2022/05/22 07:56:07;;;;;;;8.23;2.63;;;22.10;74.90;;;;;;5054895;28;20049;-68
2022/05/22 07:58:34;;;;;;;4.15;2.03;;;21.60;77.30;;;;;;5050977;28;20021;-69
2022/05/22 08:01:00;;;;;;;5.47;1.65;;;21.50;76.70;;;;;;5052023;28;20172;-68
2022/05/22 08:03:26;;;;;;;5.70;1.85;;;21.40;78.00;;;;;;5053178;28;20340;-68
2022/05/22 08:05:55;;;;;;;6.10;1.83;;;22.10;75.40;;;;;;5053997;28;20466;-69
2022/05/22 08:08:22;;;;;;;4.00;1.60;;;22.60;73.80;;;;;;5039450;28;20029;-68
2022/05/22 08:10:48;;;;;;;4.50;1.98;;;22.40;74.00;;;;;;5046465;28;20152;-67
2022/05/22 08:13:14;;;;;;;5.38;1.70;;;22.70;73.70;;;;;;5050386;28;20124;-67
2022/05/22 08:15:41;;;;;;;4.95;1.60;;;23.30;72.90;;;;;;5054953;28;20119;-68
2022/05/22 08:18:11;;;;;;;7.47;2.08;;;23.30;71.40;;;;;;5051491;28;20201;-68
2022/05/22 08:20:38;;;;;;;4.75;1.95;;;23.20;71.00;;;;;;5052407;28;20025;-68
2022/05/22 08:23:06;;;;;;;4.43;1.85;;;23.50;71.00;;;;;;5051762;28;20078;-68
2022/05/22 08:25:32;;;;;;;4.78;1.45;;;23.60;71.60;;;;;;5055057;28;20091;-68
2022/05/22 08:27:59;;;;;;;3.22;1.45;;;23.80;70.40;;;;;;5053727;28;20032;-68
2022/05/22 08:30:29;;;;;;;5.07;1.67;;;24.20;70.90;;;;;;5052131;28;20917;-68
2022/05/22 08:32:56;;;;;;;6.85;1.60;;;24.70;69.00;;;;;;5053044;28;20489;-68
2022/05/22 08:35:24;;;;;;;4.50;1.30;;;24.80;69.10;;;;;;5052593;28;20025;-68
2022/05/22 08:37:51;;;;;;;2.90;1.48;;;24.70;69.20;;;;;;5049564;28;20064;-68
2022/05/22 08:40:19;;;;;;;4.43;1.60;;;24.70;68.50;;;;;;5054191;28;20044;-68
2022/05/22 08:43:34;;;;;;;4.90;1.55;;;24.60;70.40;;;;;;5053957;28;20027;-68
2022/05/22 08:46:22;;;;;;;5.53;1.30;;;25.10;68.50;;;;;;4969750;28;20097;-67
2022/05/22 08:48:57;;;;;;;4.93;1.63;;;26.10;66.30;;;;;;4970492;28;20114;-67
2022/05/22 08:51:34;;;;;;;4.60;1.67;;;26.60;65.50;;;;;;5034481;28;20041;-66
2022/05/22 08:54:24;;;;;;;4.35;1.52;;;26.80;64.70;;;;;;5052521;28;20021;-67
2022/05/22 08:59:39;;;;;;;4.30;1.20;;;27.00;63.30;;;;;;5054671;28;20425;-67
2022/05/22 09:02:32;;;;;;;3.97;1.58;;;27.50;63.40;;;;;;5055402;28;20028;-67
2022/05/22 09:05:17;;;;;;;2.80;0.90;;;27.80;61.10;;;;;;5040584;28;20322;-68
2022/05/22 09:08:08;;;;;;;2.85;0.82;;;28.40;58.30;;;;;;5056546;28;20306;-67
2022/05/22 09:10:44;;;;;;;5.28;1.13;;;28.90;56.70;;;;;;5052964;28;20021;-67
2022/05/22 09:13:19;;;;;;;3.03;1.15;;;28.20;57.00;;;;;;5057281;28;20033;-68
2022/05/22 09:15:49;;;;;;;3.40;1.10;;;27.70;59.40;;;;;;5051798;28;20040;-68
2022/05/22 09:18:47;;;;;;;2.95;0.98;;;27.50;59.70;;;;;;5056255;28;20051;-67
2022/05/22 09:21:42;;;;;;;2.58;0.93;;;28.00;57.60;;;;;;5020952;28;20025;-67
2022/05/22 09:24:36;;;;;;;3.88;0.95;;;28.40;55.00;;;;;;5036637;28;20025;-67
2022/05/22 09:27:19;;;;;;;3.17;0.82;;;28.20;54.10;;;;;;5052207;28;20025;-67
2022/05/22 09:30:03;;;;;;;2.88;1.00;;;28.30;54.30;;;;;;5056193;28;20029;-68
2022/05/22 09:32:37;;;;;;;5.07;0.88;;;28.70;54.50;;;;;;5055962;28;20119;-68
2022/05/22 09:35:33;;;;;;;3.83;0.90;;;29.50;53.70;;;;;;5057273;28;20391;-68
2022/05/22 09:38:34;;;;;;;2.72;1.00;;;29.80;53.00;;;;;;5051083;28;20104;-69
2022/05/22 09:41:21;;;;;;;3.83;1.02;;;29.30;54.20;;;;;;5053723;28;20021;-69
2022/05/22 09:43:52;;;;;;;3.05;1.10;;;29.20;52.20;;;;;;5056274;28;20108;-69
2022/05/22 09:46:58;;;;;;;4.13;0.80;;;28.20;51.40;;;;;;5051944;28;20413;-69
2022/05/22 09:49:48;;;;;;;4.35;1.10;;;28.40;52.30;;;;;;5052791;28;20033;-68
2022/05/22 09:52:47;;;;;;;2.60;0.90;;;27.50;55.80;;;;;;5035645;28;20041;-69
2022/05/22 09:55:19;;;;;;;2.33;1.00;;;27.40;56.80;;;;;;4956876;28;20098;-69
2022/05/22 09:58:12;;;;;;;2.90;0.90;;;27.40;55.30;;;;;;5051530;28;20025;-69
2022/05/22 10:01:02;;;;;;;2.95;1.10;;;27.50;56.20;;;;;;5052036;28;20021;-68
2022/05/22 10:03:40;;;;;;;3.40;1.10;;;27.70;56.70;;;;;;5051626;28;20045;-69
2022/05/22 10:06:19;;;;;;;2.72;1.05;;;27.10;55.30;;;;;;5055047;28;20041;-69
2022/05/22 10:08:48;;;;;;;2.63;1.30;;;26.30;55.80;;;;;;5036665;28;20039;-69
2022/05/22 10:11:33;;;;;;;5.45;1.40;;;25.80;59.10;;;;;;5038110;28;20423;-68
2022/05/22 10:14:32;;;;;;;3.08;1.08;;;26.20;59.30;;;;;;5020520;28;20033;-69
2022/05/22 10:16:57;;;;;;;4.05;0.88;;;27.10;56.40;;;;;;5056083;28;20013;-69
2022/05/22 10:19:44;;;;;;;5.18;1.17;;;26.90;55.80;;;;;;5056680;28;20444;-69
2022/05/22 10:22:32;;;;;;;2.60;1.00;;;26.40;55.40;;;;;;5035075;28;20061;-69
2022/05/22 10:25:22;;;;;;;3.80;1.35;;;26.70;55.60;;;;;;5055495;28;20128;-69
2022/05/22 10:28:06;;;;;;;2.78;1.15;;;26.10;54.70;;;;;;5057216;28;20028;-69
2022/05/22 10:30:49;;;;;;;2.33;0.90;;;24.90;57.00;;;;;;5057346;28;20029;-68
2022/05/22 10:33:33;;;;;;;2.63;0.90;;;25.20;58.20;;;;;;5055060;28;20037;-68
2022/05/22 10:36:13;;;;;;;2.13;0.90;;;26.20;56.50;;;;;;5056583;28;20024;-68
2022/05/22 10:39:09;;;;;;;3.92;0.93;;;27.00;54.60;;;;;;5056083;28;20096;-68
2022/05/22 10:44:46;;;;;;;2.88;0.90;;;27.20;53.50;;;;;;5057593;28;20036;-68
2022/05/22 10:47:12;;;;;;;2.90;1.00;;;26.90;53.70;;;;;;5053619;28;20423;-68
2022/05/22 10:49:44;;;;;;;2.88;0.90;;;26.00;54.40;;;;;;5056242;28;20029;-68
2022/05/22 10:52:14;;;;;;;2.28;0.88;;;25.30;55.90;;;;;;5047561;28;20039;-68
2022/05/22 10:54:48;;;;;;;3.38;1.00;;;25.20;57.40;;;;;;5057271;28;20029;-69
2022/05/22 10:57:17;;;;;;;3.88;1.15;;;25.40;57.00;;;;;;5056469;28;20032;-69
2022/05/22 10:59:43;;;;;;;3.10;0.90;;;25.40;56.60;;;;;;5056816;28;20442;-69
2022/05/22 11:02:27;;;;;;;3.33;1.05;;;25.20;56.30;;;;;;5056066;28;20356;-69
2022/05/22 11:04:54;;;;;;;3.33;1.10;;;25.00;57.60;;;;;;5038615;28;20044;-69
2022/05/22 11:07:42;;;;;;;3.17;0.93;;;25.20;57.10;;;;;;5052989;28;20040;-68
2022/05/22 11:10:25;;;;;;;3.38;0.88;;;25.60;57.00;;;;;;5056566;28;20029;-69
2022/05/22 11:13:09;;;;;;;2.67;0.95;;;25.90;55.90;;;;;;5040747;28;20055;-68
2022/05/22 11:15:42;;;;;;;6.22;1.20;;;26.30;55.60;;;;;;5053945;28;20017;-68
2022/05/22 11:18:07;;;;;;;2.88;1.00;;;26.50;55.10;;;;;;5055511;28;20047;-69
2022/05/22 11:20:34;;;;;;;4.55;0.88;;;26.80;55.00;;;;;;5055397;28;20021;-69
2022/05/22 11:23:13;;;;;;;3.50;0.90;;;26.90;53.20;;;;;;5054351;28;20048;-68
2022/05/22 11:25:58;;;;;;;2.35;1.10;;;27.10;53.00;;;;;;5054612;28;20025;-68
2022/05/22 11:28:53;;;;;;;3.05;1.00;;;26.70;53.20;;;;;;5056557;28;20028;-69
2022/05/22 11:31:24;;;;;;;5.72;1.27;;;27.10;52.70;;;;;;5055566;28;20036;-69
2022/05/22 11:34:02;;;;;;;3.50;1.00;;;27.40;54.30;;;;;;5054979;28;20021;-68
2022/05/22 11:36:52;;;;;;;14.82;1.30;;;27.90;54.00;;;;;;5037522;28;20036;-69
2022/05/22 11:39:55;;;;;;;3.08;0.80;;;28.30;54.30;;;;;;5059160;28;20322;-69
2022/05/22 11:42:32;;;;;;;2.05;0.75;;;28.10;51.90;;;;;;5060732;28;20029;-68
2022/05/22 11:45:25;;;;;;;2.78;1.23;;;27.00;53.10;;;;;;5054458;28;20040;-68
2022/05/22 11:48:21;;;;;;;2.65;0.80;;;25.80;54.20;;;;;;5054617;28;20037;-68
2022/05/22 11:51:26;;;;;;;2.80;0.90;;;25.80;55.70;;;;;;5007266;28;20048;-67
2022/05/22 11:54:04;;;;;;;1.40;0.70;;;26.20;55.00;;;;;;5035122;28;20419;-68
2022/05/22 11:56:42;;;;;;;2.83;0.93;;;26.10;55.40;;;;;;5052465;28;20346;-70
2022/05/22 11:59:33;;;;;;;3.40;1.00;;;26.40;54.30;;;;;;5053777;28;20025;-68
2022/05/22 12:02:37;;;;;;;4.45;1.02;;;26.20;54.70;;;;;;5028603;28;20083;-68
2022/05/22 12:05:22;;;;;;;1.83;0.75;;;26.90;55.40;;;;;;5018108;28;20037;-69
2022/05/22 12:08:14;;;;;;;2.63;0.80;;;27.30;55.10;;;;;;5035097;28;20032;-67
2022/05/22 12:11:07;;;;;;;2.83;0.90;;;27.60;54.10;;;;;;5035836;28;20026;-67
2022/05/22 12:13:50;;;;;;;2.60;0.80;;;27.60;53.70;;;;;;5019815;28;20041;-67
2022/05/22 12:16:31;;;;;;;3.65;1.27;;;27.60;51.90;;;;;;5017066;28;20025;-68
2022/05/22 12:19:14;;;;;;;2.63;0.95;;;27.70;51.30;;;;;;5035169;28;20032;-67
2022/05/22 12:21:55;;;;;;;2.97;1.02;;;27.90;52.00;;;;;;5019532;28;20026;-67
2022/05/22 12:24:42;;;;;;;3.35;1.35;;;27.50;53.00;;;;;;5024285;28;20034;-67
2022/05/22 12:27:34;;;;;;;1.83;0.90;;;27.60;51.00;;;;;;5035562;28;20037;-68
2022/05/22 12:30:03;;;;;;;2.78;0.90;;;27.60;52.00;;;;;;5034028;28;20056;-66
2022/05/22 12:32:34;;;;;;;1.92;0.77;;;27.80;49.80;;;;;;5034916;28;20065;-68
2022/05/22 12:35:00;;;;;;;2.13;0.95;;;27.70;49.80;;;;;;5035399;28;20033;-67
2022/05/22 12:37:44;;;;;;;1.10;0.60;;;27.90;49.10;;;;;;5033165;28;20089;-66
2022/05/22 12:40:10;;;;;;;2.20;0.80;;;28.30;49.80;;;;;;5040104;28;20017;-66
2022/05/22 12:42:40;;;;;;;1.52;0.80;;;28.50;51.20;;;;;;5037610;28;20279;-67
2022/05/22 12:45:06;;;;;;;2.15;0.70;;;28.80;49.30;;;;;;5034604;28;20509;-67
2022/05/22 12:47:48;;;;;;;3.03;1.00;;;28.30;48.70;;;;;;5039647;28;20025;-68
2022/05/22 12:50:48;;;;;;;2.70;0.85;;;28.40;48.60;;;;;;5042157;28;20430;-67
2022/05/22 12:53:27;;;;;;;3.03;0.90;;;28.90;47.20;;;;;;5036544;28;20033;-67
2022/05/22 12:55:53;;;;;;;2.10;0.80;;;29.10;47.30;;;;;;5035041;28;20053;-68
2022/05/22 12:58:43;;;;;;;2.95;0.70;;;28.90;47.20;;;;;;5034494;28;20103;-67
2022/05/22 13:01:29;;;;;;;2.20;0.73;;;29.00;44.60;;;;;;5035681;28;20032;-67
2022/05/22 13:04:01;;;;;;;1.70;0.60;;;28.80;45.80;;;;;;5045673;28;20048;-67
2022/05/22 13:06:36;;;;;;;2.97;0.73;;;29.20;45.50;;;;;;5047784;28;20031;-67
2022/05/22 13:09:07;;;;;;;1.30;0.50;;;29.20;45.10;;;;;;5042521;28;20025;-68
2022/05/22 13:11:50;;;;;;;1.88;0.80;;;29.80;44.30;;;;;;5046113;28;20025;-68
2022/05/22 13:14:22;;;;;;;2.78;0.75;;;30.60;42.40;;;;;;5046364;28;20102;-68
2022/05/22 13:16:51;;;;;;;1.83;0.70;;;30.30;39.90;;;;;;5053320;28;20051;-68
2022/05/22 13:19:25;;;;;;;3.17;0.80;;;29.60;42.10;;;;;;5053862;28;20112;-67
2022/05/22 13:21:52;;;;;;;2.38;0.70;;;28.90;42.90;;;;;;5052789;28;20025;-68
2022/05/22 13:24:18;;;;;;;1.60;0.65;;;28.40;44.50;;;;;;5051232;28;20037;-68
2022/05/22 13:27:02;;;;;;;1.85;0.70;;;28.90;44.40;;;;;;5052553;28;20033;-67